MAD weather

Adolfo Suárez Madrid–Barajas Airport
Madrid, Madrid, Spain

Public forecast

Using degrees Celsius for public forecast. Weather courtesy of forecast.io.

METAR (pilot weather report)

Retrieved 2017/03/24 21:30 UTC (25 minutes ago):

LEMD 242130Z VRB02KT 9999 FEW011 03/02 Q1014 NOSIG

TAF (pilot weather forecast)

Retrieved 2017/03/24 18:27 UTC (3 hours ago):

TAF TAF LEMD 241700Z 2418/2524 VRB05KT 9999 FEW020 SCT045 TX11/2515Z TN03/2506Z TEMPO 2418/2420 SHRA SCT020TCU PROB30 TEMPO 2418/2420 VRB15G25KT 4000 TSRA SCT020CB PROB30 TEMPO 2506/2508 2000 BR BECMG 2509/2511 23012KT TEMPO 2511/2518 23015G33KT TEMPO 2514/2522 4000 SHRA SCT030TCU